ADDS METAR Data INFO
IDs: Format: Raw Decoded Include TAF

Data at: 0903 UTC 20 Oct 2017

KGBG 200855Z AUTO 16005KT 10SM CLR 16/14 A3012 RMK AO2 T01620138
KGBG 200835Z AUTO 15006KT 10SM CLR 16/14 A3012 RMK AO2 T01640140
KGBG 200815Z AUTO 16004KT 10SM CLR 17/14 A3012 RMK AO2 T01650140
KGBG 200755Z AUTO 17005KT 10SM CLR 17/14 A3013 RMK AO2 T01670140
KGBG 200735Z AUTO 16005KT 10SM CLR 17/14 A3013 RMK AO2 T01680140
KGBG 200715Z AUTO 17005KT 10SM CLR 17/14 A3012 RMK AO2 T01690140
KGBG 200655Z AUTO 16006KT 10SM CLR 17/14 A3012 RMK AO2 T01720140
KGBG 200635Z AUTO 16005KT 10SM CLR 17/14 A3012 RMK AO2 T01740141
KGBG 200615Z AUTO 15005KT 10SM CLR 18/14 A3012 RMK AO2 T01760142
KGBG 200555Z AUTO 15005KT 10SM CLR 18/14 A3012 RMK AO2 T01770143 10225 20177 402730055
KGBG 200535Z AUTO 16006KT 10SM CLR 18/14 A3012 RMK AO2 T01790143
KGBG 200515Z AUTO 16006KT 10SM CLR 18/15 A3012 RMK AO2 T01810145
KGBG 200455Z AUTO 16005KT 10SM CLR 18/15 A3013 RMK AO2 T01810145
KGBG 200435Z AUTO 16006KT 10SM CLR 18/15 A3013 RMK AO2 T01840145
KGBG 200415Z AUTO 15006KT 10SM CLR 19/15 A3013 RMK AO2 T01870146
KGBG 200355Z AUTO 16005KT 10SM CLR 19/15 A3013 RMK AO2 T01870146
KGBG 200335Z AUTO 17006KT 10SM CLR 19/15 A3013 RMK AO2 T01920148
KGBG 200315Z AUTO 17005KT 10SM CLR 19/15 A3013 RMK AO2 T01910150
KGBG 200255Z AUTO 17004KT 10SM CLR 19/15 A3013 RMK AO2 T01910150
KGBG 200235Z AUTO 16004KT 10SM CLR 20/15 A3012 RMK AO2 T01970152
KGBG 200215Z AUTO 16005KT 10SM CLR 21/16 A3012 RMK AO2 T02070155
KGBG 200155Z AUTO 17006KT 10SM CLR 21/16 A3012 RMK AO2 T02090155
KGBG 200135Z AUTO 16005KT 10SM CLR 21/16 A3012 RMK AO2 T02060156
KGBG 200115Z AUTO 14004KT 10SM CLR 20/16 A3013 RMK AO2 T02010156
KGBG 200055Z AUTO 16003KT 10SM CLR 21/16 A3013 RMK AO2 T02110158
KGBG 200035Z AUTO 13004KT 10SM CLR 22/16 A3013 RMK AO2 T02160158
KGBG 200015Z AUTO 13003KT 10SM CLR 22/16 A3013 RMK AO2 T02190158
KGBG 192355Z AUTO 12003KT 10SM CLR 23/16 A3013 RMK AO2 T02250160 10273 20225
KGBG 192335Z AUTO 12004KT 10SM CLR 23/16 A3012 RMK AO2 T02310160
KGBG 192315Z AUTO 12003KT 10SM CLR 24/16 A3012 RMK AO2 T02400160
KGBG 192255Z AUTO 13003KT 10SM CLR 25/16 A3012 RMK AO2 T02480160
KGBG 192230Z AUTO 12004KT 10SM CLR 26/16 A3012 RMK AO2 T02580161
KGBG 192215Z AUTO 16003KT 10SM CLR 26/16 A3012 RMK AO2 T02610162
KGBG 192155Z AUTO 12005KT 10SM CLR 27/16 A3012 RMK AO2 T02670161
KGBG 192135Z AUTO 15005KT 10SM CLR 27/16 A3012 RMK AO2 T02700162
KGBG 192115Z AUTO 11006KT 10SM CLR 27/16 A3013 RMK AO2 T02710161
KGBG 192055Z AUTO 13005KT 10SM CLR 27/16 A3013 RMK AO2 T02710158
KGBG 192035Z AUTO 11007KT 10SM CLR 27/16 A3013 RMK AO2 T02720162
KGBG 192015Z AUTO 14006KT 5SM HZ CLR 27/16 A3013 RMK AO2 T02700161
KGBG 191950Z AUTO 11005KT 7SM CLR 27/16 A3014 RMK AO2 T02700162
KGBG 191935Z AUTO 07003KT 10SM CLR 27/16 A3014 RMK AO2 T02660156
KGBG 191915Z AUTO 11004KT 10SM CLR 26/16 A3015 RMK AO2 T02630158
KGBG 191855Z AUTO 13005KT 10SM CLR 26/16 A3016 RMK AO2 T02640159
KGBG 191835Z AUTO 12004KT 10SM CLR 26/16 A3016 RMK AO2 T02600157
KGBG 191815Z AUTO 11004KT 10SM CLR 25/15 A3017 RMK AO2 T02510153
KGBG 191755Z AUTO 12007KT 10SM CLR 25/16 A3017 RMK AO2 60010 T02480155 10248 20055
KGBG 191735Z AUTO 08006KT 10SM CLR 25/15 A3018 RMK AO2 T02450154
KGBG 191715Z AUTO 11004KT 10SM CLR 24/15 A3019 RMK AO2 T02380151
KGBG 191655Z AUTO 10007KT 10SM CLR 23/15 A3019 RMK AO2 T02310146
KGBG 191635Z AUTO 09005KT 10SM CLR 23/15 A3019 RMK AO2 T02280146
KGBG 191615Z AUTO 09006KT 10SM CLR 23/14 A3019 RMK AO2 T02260141
KGBG 191555Z AUTO 10007KT 10SM CLR 22/14 A3018 RMK AO2 T02210138
KGBG 191535Z AUTO 08006KT 10SM CLR 22/14 A3018 RMK AO2 T02160135
KGBG 191515Z AUTO 09007KT 10SM CLR 21/14 A3018 RMK AO2 T02130137
KGBG 191415Z AUTO 04004KT 10SM CLR 17/14 A3017 RMK AO2 T01730138
KGBG 191355Z AUTO 00000KT 10SM CLR 16/13 A3017 RMK AO2 P0010 T01560128
KGBG 191335Z AUTO 00000KT 10SM CLR 13/13 A3016 RMK AO2 T01320126 PNO TSNO
KGBG 191255Z AUTO 00000KT 10SM CLR 07/07 A3014 RMK AO2 T00650065
KGBG 191235Z AUTO 00000KT 10SM CLR 06/06 A3014 RMK AO2 T00620062
KGBG 191210Z AUTO 00000KT 10SM CLR 06/06 A3013 RMK AO2 T00630063
KGBG 191155Z AUTO 00000KT 10SM CLR 06/06 A3013 RMK AO2 T00550055 10106 20055
KGBG 191135Z AUTO 00000KT 10SM CLR 06/06 A3012 RMK AO2 T00620062
KGBG 191115Z AUTO 00000KT 10SM CLR 07/07 A3012 RMK AO2 T00660066
KGBG 191055Z AUTO 00000KT 10SM CLR 06/06 A3012 RMK AO2 T00640064
KGBG 191035Z AUTO 00000KT 10SM CLR 06/06 A3011 RMK AO2 T00640059
KGBG 191015Z AUTO 00000KT 10SM CLR 07/06 A3010 RMK AO2 T00700059
KGBG 190955Z AUTO 00000KT 10SM CLR 07/06 A3009 RMK AO2 T00730061
KGBG 190935Z AUTO 00000KT 10SM CLR 08/06 A3008 RMK AO2 T00800062
KGBG 190915Z AUTO 00000KT 10SM CLR 07/06 A3008 RMK AO2 T00730058
KGBG 190855Z AUTO 19003KT 10SM CLR 09/07 A3008 RMK AO2 T00920068
KGBG 190835Z AUTO 00000KT 10SM CLR 09/07 A3008 RMK AO2 T00920069
KGBG 190815Z AUTO 00000KT 10SM CLR 09/07 A3008 RMK AO2 T00930068
KGBG 190755Z AUTO 19003KT 10SM CLR 10/07 A3008 RMK AO2 T00970070
KGBG 190735Z AUTO 19004KT 10SM CLR 10/07 A3007 RMK AO2 T00960070
KGBG 190715Z AUTO 19006KT 10SM CLR 10/07 A3007 RMK AO2 T01000072
KGBG 190655Z AUTO 19005KT 10SM CLR 10/07 A3006 RMK AO2 T01000070
KGBG 190635Z AUTO 18005KT 10SM CLR 10/07 A3006 RMK AO2 T01020071
KGBG 190615Z AUTO 19004KT 10SM CLR 10/07 A3006 RMK AO2 T01020070
KGBG 190555Z AUTO 18004KT 10SM CLR 11/07 A3006 RMK AO2 T01060071 10166 20106 402210071
KGBG 190535Z AUTO 17004KT 10SM CLR 11/07 A3006 RMK AO2 T01100071
KGBG 190515Z AUTO 18004KT 10SM CLR 11/07 A3006 RMK AO2 T01130071
KGBG 190455Z AUTO 17005KT 10SM CLR 12/07 A3007 RMK AO2 T01200073
KGBG 190435Z AUTO 17005KT 10SM CLR 12/08 A3007 RMK AO2 T01220075
KGBG 190415Z AUTO 17004KT 10SM CLR 12/07 A3008 RMK AO2 T01180073
KGBG 190355Z AUTO 17004KT 10SM CLR 12/07 A3008 RMK AO2 T01150071
KGBG 190335Z AUTO 17003KT 10SM CLR 12/07 A3008 RMK AO2 T01180072
KGBG 190315Z AUTO 18003KT 10SM CLR 12/07 A3008 RMK AO2 T01240072
KGBG 190255Z AUTO 19004KT 10SM CLR 13/07 A3008 RMK AO2 T01300072
KGBG 190235Z AUTO 18006KT 10SM CLR 14/07 A3007 RMK AO2 T01350072
KGBG 190215Z AUTO 18006KT 10SM CLR 14/07 A3006 RMK AO2 T01400073
KGBG 190155Z AUTO 19006KT 10SM CLR 14/07 A3006 RMK AO2 T01430074
KGBG 190135Z AUTO 19004KT 10SM CLR 14/07 A3006 RMK AO2 T01400071
KGBG 190115Z AUTO 17006KT 10SM CLR 14/07 A3005 RMK AO2 T01420071
KGBG 190055Z AUTO 19005KT 10SM CLR 15/07 A3005 RMK AO2 T01460071
KGBG 190035Z AUTO 17005KT 10SM CLR 15/07 A3004 RMK AO2 T01500072
KGBG 190015Z AUTO 16004KT 10SM CLR 16/07 A3003 RMK AO2 T01550073
KGBG 182355Z AUTO 15005KT 10SM CLR 17/07 A3003 RMK AO2 T01660074 10221 20166
KGBG 182335Z AUTO 16006KT 10SM CLR 17/07 A3002 RMK AO2 T01740072
KGBG 182315Z AUTO 16007KT 10SM CLR 19/07 A3003 RMK AO2 T01850071
KGBG 182255Z AUTO 17007KT 10SM CLR 19/07 A3003 RMK AO2 T01930073
KGBG 182235Z AUTO 18008KT 10SM CLR 20/07 A3003 RMK AO2 T02010070
KGBG 182215Z AUTO 19010G14KT 10SM CLR 21/07 A3003 RMK AO2 T02060066
KGBG 182200Z AUTO 20015G19KT 10SM CLR 21/06 A3003 RMK AO2 T02110062
KGBG 182135Z AUTO 19010G15KT 10SM CLR 22/07 A3003 RMK AO2 T02150065
KGBG 182115Z AUTO 20014G22KT 10SM CLR 22/06 A3003 RMK AO2 T02160061